Time;durP1;ratioP1;P1;durP2;ratioP2;P2;SDS_P1;SDS_P2;PMS_P1;PMS_P2;Temp;Humidity;BMP_temperature;BMP_pressure;BME280_temperature;BME280_humidity;BME280_pressure;Samples;Min_cycle;Max_cycle;Signal;HPM_P1;HPM_P2
2022/02/09 00:02:35;;;;;;;7.23;4.20;;;9.00;97.30;;;;;;5015335;28;20407;-85
2022/02/09 00:07:58;;;;;;;6.57;3.87;;;8.90;97.30;;;;;;5015649;28;20783;-87
2022/02/09 00:10:12;;;;;;;7.30;3.93;;;8.90;97.30;;;;;;5015740;28;20209;-86
2022/02/09 00:13:04;;;;;;;10.07;3.57;;;8.90;97.30;;;;;;5013641;28;20825;-86
2022/02/09 00:15:41;;;;;;;5.87;3.93;;;8.90;97.30;;;;;;5015963;28;20236;-86
2022/02/09 00:18:22;;;;;;;7.33;3.80;;;8.90;97.30;;;;;;5014106;28;20735;-86
2022/02/09 00:21:10;;;;;;;10.17;3.47;;;8.90;97.30;;;;;;5014047;28;20510;-86
2022/02/09 00:23:47;;;;;;;5.97;3.30;;;8.90;97.30;;;;;;5013699;28;20810;-86
2022/02/09 00:26:57;;;;;;;4.87;3.70;;;8.90;97.30;;;;;;5013669;28;20456;-87
2022/02/09 00:35:05;;;;;;;6.73;3.57;;;8.90;97.30;;;;;;4978429;28;20185;-87
2022/02/09 00:37:42;;;;;;;7.90;3.83;;;8.90;97.30;;;;;;4973096;28;20418;-87
2022/02/09 00:59:10;;;;;;;6.67;3.53;;;8.90;97.30;;;;;;5015275;28;20815;-87
2022/02/09 01:40:05;;;;;;;4.50;3.30;;;8.80;97.30;;;;;;5013747;28;20439;-86
2022/02/09 01:51:12;;;;;;;5.67;3.30;;;8.70;97.30;;;;;;5013618;28;20847;-87
2022/02/09 01:55:26;;;;;;;7.43;4.00;;;8.70;97.30;;;;;;5012960;28;20879;-86
2022/02/09 01:56:52;;;;;;;4.70;3.23;;;8.80;97.30;;;;;;5014695;28;20439;-86
2022/02/09 01:59:18;;;;;;;6.63;3.80;;;8.80;97.30;;;;;;5012726;28;20439;-88
2022/02/09 02:01:43;;;;;;;6.17;3.30;;;8.80;97.30;;;;;;5012031;28;20420;-86
2022/02/09 02:04:09;;;;;;;6.73;3.47;;;8.80;97.30;;;;;;5012836;28;20825;-87
2022/02/09 02:06:35;;;;;;;5.43;3.67;;;8.80;97.30;;;;;;5014727;28;20671;-87
2022/02/09 02:09:02;;;;;;;5.23;3.33;;;8.80;97.30;;;;;;5012371;28;20436;-86
2022/02/09 02:17:21;;;;;;;5.50;3.30;;;8.80;97.30;;;;;;5030941;28;20848;-87
2022/02/09 02:19:51;;;;;;;5.57;3.33;;;8.80;97.30;;;;;;5014563;28;20872;-86
2022/02/09 02:25:13;;;;;;;5.57;3.43;;;8.80;97.30;;;;;;5013283;28;20419;-87
2022/02/09 02:44:15;;;;;;;4.60;3.53;;;8.80;97.30;;;;;;5022619;28;20425;-87
2022/02/09 02:46:41;;;;;;;6.37;3.00;;;8.80;97.30;;;;;;5016281;28;20554;-87
2022/02/09 03:11:01;;;;;;;5.30;2.70;;;8.70;97.30;;;;;;5043661;23;20518;-81
2022/02/09 03:13:31;;;;;;;4.80;2.83;;;8.70;97.30;;;;;;5031295;28;20453;-81
2022/02/09 03:16:03;;;;;;;5.97;3.30;;;8.70;97.30;;;;;;5014962;28;20456;-81
2022/02/09 03:21:29;;;;;;;4.63;2.67;;;8.70;97.30;;;;;;5024444;28;20819;-81
2022/02/09 03:24:53;;;;;;;4.83;3.10;;;8.70;97.30;;;;;;5035205;28;20430;-81
2022/02/09 03:27:17;;;;;;;3.53;2.73;;;8.80;97.30;;;;;;5031377;28;21007;-81
2022/02/09 03:43:55;;;;;;;4.80;3.07;;;8.80;97.30;;;;;;5035376;28;20521;-81
2022/02/09 03:49:00;;;;;;;5.20;3.50;;;8.80;97.30;;;;;;5035467;28;20434;-81
2022/02/09 03:58:54;;;;;;;4.80;3.03;;;8.80;97.30;;;;;;5036506;28;20445;-81
2022/02/09 04:01:23;;;;;;;5.77;3.40;;;8.80;97.30;;;;;;5033736;28;20429;-81
2022/02/09 04:03:48;;;;;;;4.50;3.00;;;8.80;97.30;;;;;;5034696;28;20802;-81
2022/02/09 04:06:15;;;;;;;5.23;3.00;;;8.80;97.30;;;;;;5034050;28;20534;-79
2022/02/09 04:08:51;;;;;;;5.80;3.20;;;8.80;97.30;;;;;;5033678;28;20179;-82
2022/02/09 04:11:26;;;;;;;4.70;2.90;;;8.80;97.30;;;;;;5033500;28;20484;-82
2022/02/09 04:14:05;;;;;;;5.27;2.97;;;8.80;97.30;;;;;;5034038;28;20439;-81
2022/02/09 04:19:23;;;;;;;2.90;2.40;;;8.80;97.30;;;;;;5035130;28;20492;-82
2022/02/09 04:39:03;;;;;;;3.30;2.50;;;8.80;97.30;;;;;;5035084;28;20430;-81
2022/02/09 04:51:24;;;;;;;5.40;3.13;;;8.80;97.30;;;;;;5034640;28;20462;-81
2022/02/09 04:59:14;;;;;;;4.60;2.77;;;8.80;97.30;;;;;;5034669;28;20423;-81
2022/02/09 05:04:23;;;;;;;4.57;2.90;;;8.80;97.30;;;;;;5033867;28;20514;-81
2022/02/09 05:18:07;;;;;;;4.87;2.80;;;8.80;97.30;;;;;;5036064;28;20446;-81
2022/02/09 05:23:39;;;;;;;4.30;3.00;;;8.80;97.30;;;;;;5034370;28;20990;-82
2022/02/09 05:28:31;;;;;;;7.47;3.37;;;8.80;97.30;;;;;;5034240;28;20453;-81
2022/02/09 05:30:56;;;;;;;4.40;3.00;;;8.80;97.30;;;;;;5031347;28;20177;-85
2022/02/09 05:33:23;;;;;;;4.63;3.37;;;8.80;97.30;;;;;;5029147;28;20196;-85
2022/02/09 05:35:49;;;;;;;4.87;3.13;;;8.80;97.30;;;;;;5029687;28;20187;-86
2022/02/09 05:38:17;;;;;;;5.90;2.97;;;8.80;97.30;;;;;;5028954;28;20451;-85
2022/02/09 05:40:44;;;;;;;6.27;2.97;;;8.80;97.30;;;;;;5028865;28;20419;-85
2022/02/09 05:43:11;;;;;;;4.90;2.93;;;8.80;97.30;;;;;;5029085;28;20435;-85
2022/02/09 05:51:08;;;;;;;6.00;2.90;;;8.80;97.30;;;;;;5033675;28;20438;-85
2022/02/09 05:56:21;;;;;;;3.73;2.60;;;8.80;97.30;;;;;;5035004;28;20436;-85
2022/02/09 05:58:51;;;;;;;6.03;3.50;;;8.80;97.30;;;;;;5034232;28;20815;-84
2022/02/09 06:01:16;;;;;;;6.10;3.33;;;8.80;97.30;;;;;;5037399;28;20426;-85
2022/02/09 06:03:42;;;;;;;5.50;3.23;;;8.80;97.30;;;;;;5034962;28;20419;-85
2022/02/09 06:06:09;;;;;;;7.07;3.47;;;8.80;97.30;;;;;;5034659;28;20208;-85
2022/02/09 06:08:36;;;;;;;5.30;3.10;;;8.80;97.30;;;;;;5037364;28;20173;-84
2022/02/09 06:11:23;;;;;;;3.87;2.70;;;8.70;97.30;;;;;;5037168;28;20466;-85
2022/02/09 06:14:16;;;;;;;7.17;3.03;;;8.70;97.30;;;;;;5036358;28;20798;-85
2022/02/09 06:22:04;;;;;;;4.50;2.83;;;8.60;97.30;;;;;;5032927;28;20841;-85
2022/02/09 06:24:30;;;;;;;5.70;3.20;;;8.70;97.30;;;;;;5028421;28;21194;-85
2022/02/09 06:26:56;;;;;;;3.93;2.80;;;8.60;97.30;;;;;;5034029;28;20463;-85
2022/02/09 06:29:22;;;;;;;5.20;3.00;;;8.60;97.30;;;;;;5030030;28;20169;-85
2022/02/09 06:31:49;;;;;;;4.80;3.30;;;8.60;97.30;;;;;;5032543;28;20484;-86
2022/02/09 06:34:17;;;;;;;5.13;3.00;;;8.60;97.30;;;;;;5033830;28;20427;-85
2022/02/09 06:36:50;;;;;;;6.57;3.53;;;8.60;97.30;;;;;;5033182;28;20427;-85
2022/02/09 06:39:17;;;;;;;8.13;3.40;;;8.70;97.30;;;;;;5052569;28;20545;-86
2022/02/09 06:41:43;;;;;;;7.20;3.37;;;8.70;97.30;;;;;;5045213;28;20888;-85
2022/02/09 06:44:10;;;;;;;6.80;3.23;;;8.70;97.30;;;;;;5033530;28;20422;-85
2022/02/09 06:46:38;;;;;;;6.40;3.97;;;8.70;97.30;;;;;;5046497;28;21002;-86
2022/02/09 06:49:07;;;;;;;4.20;2.97;;;8.70;97.30;;;;;;5036276;28;20803;-85
2022/02/09 06:51:36;;;;;;;5.57;2.83;;;8.70;97.30;;;;;;5043031;28;20533;-85
2022/02/09 06:54:08;;;;;;;9.80;3.60;;;8.70;97.30;;;;;;5031781;28;20419;-85
2022/02/09 06:56:56;;;;;;;5.60;3.20;;;8.70;97.30;;;;;;5030915;28;20941;-85
2022/02/09 06:59:31;;;;;;;5.00;3.47;;;8.70;97.30;;;;;;5042455;28;20406;-83
2022/02/09 07:02:04;;;;;;;5.33;3.00;;;8.70;97.30;;;;;;5050876;28;20429;-86
2022/02/09 07:04:31;;;;;;;6.50;3.47;;;8.70;97.30;;;;;;5051993;28;20484;-85
2022/02/09 07:06:56;;;;;;;6.63;3.33;;;8.70;97.30;;;;;;5034158;28;20709;-85
2022/02/09 07:09:23;;;;;;;6.33;3.30;;;8.70;97.30;;;;;;5035376;28;20474;-86
2022/02/09 07:11:50;;;;;;;6.87;3.90;;;8.70;97.30;;;;;;5039274;28;20196;-85
2022/02/09 07:14:21;;;;;;;5.13;3.10;;;8.70;97.30;;;;;;5049829;28;20481;-82
2022/02/09 07:16:47;;;;;;;5.93;3.53;;;8.70;97.30;;;;;;5054402;28;20429;-83
2022/02/09 07:19:13;;;;;;;10.60;4.07;;;8.70;97.30;;;;;;5051033;28;20447;-83
2022/02/09 07:21:40;;;;;;;4.87;3.20;;;8.70;97.30;;;;;;5042435;28;20492;-83
2022/02/09 07:24:08;;;;;;;7.77;3.47;;;8.70;97.30;;;;;;5047591;28;20184;-83
2022/02/09 07:29:09;;;;;;;6.23;3.10;;;8.70;97.30;;;;;;5046389;28;20422;-81
2022/02/09 07:31:34;;;;;;;5.70;3.30;;;8.70;97.30;;;;;;5035592;28;20953;-82
2022/02/09 07:34:00;;;;;;;8.33;4.67;;;8.70;97.30;;;;;;5030283;28;20555;-85
2022/02/09 07:36:35;;;;;;;8.33;5.13;;;8.70;97.30;;;;;;5027342;28;20643;-86
2022/02/09 07:39:09;;;;;;;6.70;3.60;;;8.70;97.30;;;;;;5029432;28;20184;-86
2022/02/09 07:41:36;;;;;;;4.00;2.90;;;8.70;97.30;;;;;;5020310;28;20523;-85
2022/02/09 07:44:17;;;;;;;6.47;3.83;;;8.70;97.30;;;;;;5031057;28;20427;-86
2022/02/09 07:49:52;;;;;;;6.30;3.00;;;8.80;97.30;;;;;;5032640;28;20458;-86
2022/02/09 07:52:24;;;;;;;5.60;3.70;;;8.80;97.30;;;;;;5032525;28;20461;-83
2022/02/09 07:54:50;;;;;;;3.90;2.70;;;8.80;97.30;;;;;;5011227;28;20910;-86
2022/02/09 07:57:16;;;;;;;3.27;2.70;;;8.80;97.30;;;;;;5011282;28;20428;-85
2022/02/09 07:59:41;;;;;;;6.77;2.93;;;8.80;97.30;;;;;;5029957;28;20444;-86
2022/02/09 08:02:07;;;;;;;4.10;2.57;;;8.80;97.30;;;;;;5022412;28;20204;-85
2022/02/09 08:04:32;;;;;;;4.47;3.07;;;8.80;97.30;;;;;;5031635;28;20710;-85
2022/02/09 08:06:58;;;;;;;5.20;2.57;;;8.80;97.30;;;;;;5032434;28;20220;-85
2022/02/09 08:33:17;;;;;;;3.60;2.33;;;9.00;97.30;;;;;;5031697;28;20469;-84
2022/02/09 08:35:44;;;;;;;2.90;2.47;;;9.00;97.30;;;;;;5029550;28;20187;-84
2022/02/09 08:38:10;;;;;;;7.27;3.40;;;9.10;97.30;;;;;;5030058;28;20419;-85
2022/02/09 08:40:36;;;;;;;5.23;3.50;;;9.10;97.30;;;;;;5030830;28;20923;-84
2022/02/09 08:43:02;;;;;;;5.70;2.53;;;9.10;97.30;;;;;;5030834;28;20254;-84
2022/02/09 08:45:28;;;;;;;6.63;3.30;;;9.10;97.30;;;;;;5029601;28;20219;-85
2022/02/09 08:47:56;;;;;;;7.47;3.80;;;9.10;97.30;;;;;;5029635;28;20415;-85
2022/02/09 08:50:22;;;;;;;8.07;3.33;;;9.10;97.30;;;;;;5030946;28;20173;-84
2022/02/09 08:52:49;;;;;;;5.93;2.83;;;9.10;97.30;;;;;;5031313;28;20542;-85
2022/02/09 08:55:15;;;;;;;9.30;3.60;;;9.10;97.30;;;;;;5029217;28;20851;-84
2022/02/09 08:57:41;;;;;;;6.43;3.37;;;9.10;97.30;;;;;;5030654;28;20498;-85
2022/02/09 09:00:31;;;;;;;7.43;3.07;;;9.10;97.30;;;;;;5029715;28;20904;-83
2022/02/09 09:03:09;;;;;;;6.60;3.97;;;9.10;97.30;;;;;;5029375;28;20239;-85
2022/02/09 09:08:20;;;;;;;7.83;3.30;;;9.10;97.30;;;;;;5031309;28;20485;-84
2022/02/09 09:11:06;;;;;;;7.90;2.87;;;9.10;97.30;;;;;;5029347;28;20465;-85
2022/02/09 10:00:39;;;;;;;3.67;2.17;;;9.40;97.30;;;;;;5030623;28;20421;-84
2022/02/09 10:31:34;;;;;;;3.40;2.57;;;9.50;97.30;;;;;;4987587;28;20437;-83
2022/02/09 10:33:58;;;;;;;5.20;2.43;;;9.60;97.30;;;;;;5027701;28;20407;-84
2022/02/09 10:36:25;;;;;;;2.43;1.90;;;9.60;97.30;;;;;;5028697;28;20427;-85
2022/02/09 10:39:09;;;;;;;3.10;2.23;;;9.60;97.30;;;;;;5028400;28;20506;-85
2022/02/09 10:41:42;;;;;;;3.97;2.50;;;9.60;97.30;;;;;;5028140;28;20438;-85
2022/02/09 10:44:12;;;;;;;5.10;2.47;;;9.60;97.30;;;;;;5029287;28;20415;-85
2022/02/09 10:46:57;;;;;;;6.67;2.67;;;9.70;97.30;;;;;;5030257;28;20493;-85
2022/02/09 10:49:27;;;;;;;6.67;3.37;;;9.70;97.30;;;;;;5033831;28;20411;-85
2022/02/09 10:52:17;;;;;;;4.83;2.70;;;9.70;97.30;;;;;;5032116;28;20632;-84
2022/02/09 10:54:39;;;;;;;4.73;3.47;;;9.70;97.30;;;;;;5033079;28;20936;-85
2022/02/09 10:57:08;;;;;;;3.57;2.50;;;9.70;97.30;;;;;;5031620;28;20473;-85
2022/02/09 10:59:37;;;;;;;6.17;2.57;;;9.70;97.30;;;;;;5033355;28;20199;-85
2022/02/09 11:02:09;;;;;;;4.40;2.53;;;9.70;97.30;;;;;;5031756;28;20435;-84
2022/02/09 11:04:35;;;;;;;3.33;2.00;;;9.80;97.30;;;;;;5031923;28;20419;-85
2022/02/09 11:07:00;;;;;;;7.57;3.03;;;9.80;97.30;;;;;;5031582;28;20454;-85
2022/02/09 11:09:27;;;;;;;4.50;2.40;;;9.80;97.30;;;;;;5031426;28;20246;-85
2022/02/09 11:11:53;;;;;;;4.10;2.57;;;9.80;97.30;;;;;;5031524;28;20200;-85
2022/02/09 11:14:22;;;;;;;4.13;2.37;;;9.80;97.30;;;;;;5033068;28;20407;-85
2022/02/09 11:16:52;;;;;;;5.33;2.67;;;9.90;97.30;;;;;;5031143;28;20740;-84
2022/02/09 11:19:19;;;;;;;3.70;2.30;;;9.90;97.30;;;;;;5031210;28;20510;-85
2022/02/09 11:21:51;;;;;;;3.60;2.50;;;10.00;97.30;;;;;;5032106;28;20443;-85
2022/02/09 11:24:27;;;;;;;4.17;3.07;;;10.00;97.30;;;;;;5031474;28;20427;-86
2022/02/09 11:27:08;;;;;;;3.00;1.83;;;10.00;97.30;;;;;;5032878;28;20462;-84
2022/02/09 11:29:42;;;;;;;5.00;2.47;;;10.00;97.30;;;;;;5034239;28;20473;-82
2022/02/09 11:32:22;;;;;;;4.33;2.30;;;10.00;97.30;;;;;;5034861;28;21019;-82
2022/02/09 11:34:52;;;;;;;3.33;2.40;;;10.00;97.30;;;;;;5032604;28;20407;-81
2022/02/09 11:37:27;;;;;;;3.10;2.10;;;10.00;97.30;;;;;;5032627;28;20502;-81
2022/02/09 11:39:56;;;;;;;3.20;2.17;;;10.10;97.30;;;;;;5031718;28;20454;-83
2022/02/09 11:42:46;;;;;;;2.93;2.53;;;10.10;97.30;;;;;;5032063;28;20439;-83
2022/02/09 11:45:38;;;;;;;3.77;2.27;;;10.10;97.30;;;;;;5032146;28;20422;-83
2022/02/09 11:58:53;;;;;;;3.87;2.57;;;10.10;97.30;;;;;;5035189;28;20173;-82
2022/02/09 12:09:46;;;;;;;2.50;2.20;;;10.20;97.30;;;;;;5034441;28;20458;-83
2022/02/09 12:12:17;;;;;;;3.77;2.33;;;10.20;97.30;;;;;;5033186;28;20625;-83
2022/02/09 12:15:42;;;;;;;3.47;2.37;;;10.20;97.30;;;;;;5032687;28;20905;-82
2022/02/09 12:18:13;;;;;;;4.23;2.77;;;10.20;97.30;;;;;;5034683;28;20878;-82
2022/02/09 12:20:47;;;;;;;3.53;2.23;;;10.20;97.30;;;;;;5034726;28;20462;-82
2022/02/09 12:25:41;;;;;;;3.53;2.13;;;10.20;97.30;;;;;;5033946;28;20465;-82
2022/02/09 12:28:12;;;;;;;2.83;2.67;;;10.20;97.30;;;;;;5032958;28;20415;-82
2022/02/09 12:30:38;;;;;;;3.47;2.20;;;10.20;97.30;;;;;;5032930;28;20508;-82
2022/02/09 12:33:03;;;;;;;3.87;2.60;;;10.20;97.30;;;;;;5033538;28;20443;-82
2022/02/09 12:35:29;;;;;;;4.60;3.00;;;10.20;97.30;;;;;;5032913;28;20184;-83
2022/02/09 12:37:55;;;;;;;5.27;2.47;;;10.20;97.30;;;;;;5033192;28;20441;-82
2022/02/09 12:40:22;;;;;;;5.30;2.67;;;10.10;97.30;;;;;;5033003;28;20173;-82
2022/02/09 12:42:54;;;;;;;6.70;2.23;;;10.10;97.30;;;;;;5032600;28;20188;-82
2022/02/09 12:45:22;;;;;;;5.73;2.63;;;10.10;97.30;;;;;;5032652;28;20419;-83
2022/02/09 12:48:03;;;;;;;5.40;2.80;;;10.10;97.30;;;;;;5034880;28;20422;-82
2022/02/09 12:50:38;;;;;;;6.90;3.03;;;10.10;97.30;;;;;;5033848;28;20879;-82
2022/02/09 12:53:07;;;;;;;5.60;2.57;;;10.10;97.30;;;;;;5033064;28;20439;-82
2022/02/09 12:55:35;;;;;;;4.93;3.50;;;10.10;97.30;;;;;;5032754;28;20435;-82
2022/02/09 12:58:07;;;;;;;3.17;2.53;;;10.10;97.30;;;;;;5032256;28;20427;-82
2022/02/09 13:00:38;;;;;;;4.67;3.30;;;10.10;97.30;;;;;;5032233;28;20860;-82
2022/02/09 13:03:10;;;;;;;6.93;3.17;;;10.10;97.30;;;;;;5032195;28;20434;-82
2022/02/09 13:05:49;;;;;;;8.50;3.50;;;10.10;97.30;;;;;;5032993;28;20458;-82
2022/02/09 13:08:29;;;;;;;5.80;2.77;;;10.20;97.30;;;;;;5031008;28;20412;-83
2022/02/09 13:11:19;;;;;;;5.57;3.37;;;10.20;97.30;;;;;;5029558;28;20995;-82
2022/02/09 13:13:56;;;;;;;7.57;3.40;;;10.20;97.30;;;;;;5031168;28;20430;-82
2022/02/09 13:16:57;;;;;;;8.37;4.57;;;10.20;97.30;;;;;;5030699;28;20419;-83
2022/02/09 13:19:42;;;;;;;4.60;2.80;;;10.20;97.30;;;;;;5031483;28;20419;-82
2022/02/09 13:22:41;;;;;;;10.83;3.60;;;10.20;97.30;;;;;;5030888;28;20447;-82
2022/02/09 14:05:59;;;;;;;6.53;3.33;;;10.20;97.30;;;;;;5033208;28;20411;-83
2022/02/09 14:53:30;;;;;;;7.63;3.10;;;10.10;97.30;;;;;;5038723;28;20254;-83
2022/02/09 14:58:43;;;;;;;5.53;3.40;;;10.10;97.30;;;;;;5036889;28;20664;-82
2022/02/09 15:01:14;;;;;;;7.20;3.53;;;10.10;97.30;;;;;;5033297;28;20514;-83
2022/02/09 15:04:06;;;;;;;5.90;3.60;;;10.10;97.30;;;;;;5033582;28;20432;-82
2022/02/09 15:07:21;;;;;;;5.60;3.43;;;10.10;97.30;;;;;;5033774;28;20489;-83
2022/02/09 15:12:15;;;;;;;5.97;3.87;;;10.10;97.30;;;;;;5035558;28;20426;-83
2022/02/09 15:15:02;;;;;;;4.53;3.40;;;10.10;97.30;;;;;;5032785;28;20474;-83
2022/02/09 15:23:00;;;;;;;5.93;3.60;;;10.10;97.30;;;;;;4992302;28;20448;-83
2022/02/09 15:25:31;;;;;;;6.90;3.97;;;10.10;97.30;;;;;;4976714;28;20432;-83
2022/02/09 15:27:59;;;;;;;6.47;3.50;;;10.10;97.30;;;;;;5012228;28;20222;-83
2022/02/09 15:30:27;;;;;;;4.93;3.20;;;10.10;97.30;;;;;;5032482;28;20415;-84
2022/02/09 15:32:55;;;;;;;7.73;3.70;;;10.10;97.30;;;;;;5031754;28;20526;-84
2022/02/09 15:35:32;;;;;;;6.53;3.80;;;10.10;97.30;;;;;;5031487;28;20431;-84
2022/02/09 15:43:43;;;;;;;8.40;3.70;;;10.00;97.30;;;;;;5033528;28;20437;-84
2022/02/09 15:57:15;;;;;;;7.57;3.80;;;10.00;97.30;;;;;;5033743;28;20851;-84
2022/02/09 16:23:50;;;;;;;6.73;3.87;;;9.80;97.30;;;;;;5013479;28;20482;-84
2022/02/09 16:33:13;;;;;;;9.70;3.00;;;9.80;97.30;;;;;;5012002;28;20888;-84
2022/02/09 16:45:30;;;;;;;14.77;6.23;;;9.80;97.30;;;;;;5031652;28;20419;-84
2022/02/09 16:48:00;;;;;;;18.30;7.10;;;9.70;97.30;;;;;;5030296;28;20510;-84
2022/02/09 16:50:35;;;;;;;11.37;4.50;;;9.70;97.30;;;;;;5032128;28;20892;-84
2022/02/09 16:53:09;;;;;;;7.80;4.10;;;9.70;97.30;;;;;;5032274;28;20437;-85
2022/02/09 16:55:57;;;;;;;7.17;3.40;;;9.70;97.30;;;;;;5030832;28;20425;-85
2022/02/09 17:19:59;;;;;;;3.50;2.90;;;9.70;97.30;;;;;;5031791;28;20433;-85
2022/02/09 17:22:24;;;;;;;5.47;3.13;;;9.70;97.30;;;;;;5031005;28;21015;-84
2022/02/09 17:24:50;;;;;;;5.83;3.17;;;9.70;97.30;;;;;;5031156;28;20602;-85
2022/02/09 17:27:18;;;;;;;5.57;3.03;;;9.70;97.30;;;;;;5031115;28;20265;-84
2022/02/09 17:53:31;;;;;;;5.90;3.00;;;9.60;97.30;;;;;;5032585;28;20481;-84
2022/02/09 17:58:34;;;;;;;5.87;2.60;;;9.60;97.30;;;;;;5035944;28;20909;-84
2022/02/09 18:01:02;;;;;;;4.53;2.93;;;9.60;97.30;;;;;;5034459;28;20503;-84
2022/02/09 18:03:28;;;;;;;3.77;2.57;;;9.50;97.30;;;;;;5036041;28;20423;-84
2022/02/09 18:05:57;;;;;;;3.43;2.80;;;9.60;97.30;;;;;;5034548;28;20470;-84
2022/02/09 18:11:01;;;;;;;5.87;3.40;;;9.50;97.30;;;;;;5035085;28;20498;-84
2022/02/09 19:03:58;;;;;;;7.40;3.20;;;9.50;97.30;;;;;;5034558;28;20195;-84
2022/02/09 19:07:15;;;;;;;5.27;3.37;;;9.50;97.30;;;;;;5032987;28;20821;-84
2022/02/09 19:17:28;;;;;;;5.90;4.03;;;9.50;97.30;;;;;;5035350;28;20885;-84
2022/02/09 19:20:09;;;;;;;9.50;4.60;;;9.50;97.30;;;;;;5038215;28;20956;-84
2022/02/09 19:40:40;;;;;;;7.63;3.93;;;9.40;97.30;;;;;;5038080;28;20410;-83
2022/02/09 19:47:43;;;;;;;7.30;3.97;;;9.40;97.30;;;;;;5029600;28;20908;-84
2022/02/09 19:52:33;;;;;;;7.70;3.63;;;9.30;97.30;;;;;;5040876;28;20445;-83
2022/02/09 19:57:37;;;;;;;9.37;4.00;;;9.30;97.30;;;;;;5023128;28;20432;-83
2022/02/09 20:00:05;;;;;;;8.40;4.27;;;9.30;97.30;;;;;;5025025;28;20422;-83
2022/02/09 20:02:32;;;;;;;5.23;3.47;;;9.30;97.30;;;;;;5018837;28;20455;-82
2022/02/09 20:04:58;;;;;;;6.40;4.00;;;9.30;97.30;;;;;;5016158;28;20435;-83
2022/02/09 20:07:24;;;;;;;5.20;3.80;;;9.30;97.30;;;;;;5028820;28;20581;-83
2022/02/09 20:09:50;;;;;;;7.90;3.80;;;9.30;97.30;;;;;;5015034;28;20706;-83
2022/02/09 20:12:16;;;;;;;9.03;4.23;;;9.30;97.30;;;;;;5029104;28;20197;-84
2022/02/09 20:14:46;;;;;;;5.80;3.63;;;9.30;97.30;;;;;;5031448;28;20534;-84
2022/02/09 20:17:12;;;;;;;5.40;3.77;;;9.20;97.30;;;;;;5031815;28;20419;-83
2022/02/09 20:19:41;;;;;;;6.27;3.67;;;9.20;97.30;;;;;;5017588;28;20431;-84
2022/02/09 20:22:07;;;;;;;8.27;4.17;;;9.20;97.30;;;;;;5032025;28;20517;-84
2022/02/09 20:24:33;;;;;;;7.77;3.93;;;9.20;97.30;;;;;;5024696;28;21023;-84
2022/02/09 20:27:04;;;;;;;8.87;4.47;;;9.20;97.30;;;;;;5027381;28;20208;-84
2022/02/09 20:29:31;;;;;;;5.70;3.70;;;9.20;97.30;;;;;;5032252;28;20447;-84
2022/02/09 20:32:14;;;;;;;6.87;4.80;;;9.20;97.30;;;;;;5031489;28;20443;-84
2022/02/09 20:34:54;;;;;;;6.60;3.60;;;9.20;97.30;;;;;;5028348;28;20477;-84
2022/02/09 20:37:22;;;;;;;6.20;3.60;;;9.20;97.30;;;;;;5035048;28;20774;-84
2022/02/09 20:40:08;;;;;;;6.37;3.83;;;9.20;97.30;;;;;;5034514;28;20432;-84
2022/02/09 20:42:33;;;;;;;7.00;3.60;;;9.20;97.30;;;;;;5035081;28;20466;-83
2022/02/09 20:48:13;;;;;;;9.13;4.30;;;9.20;97.30;;;;;;5014011;28;20192;-83
2022/02/09 20:50:40;;;;;;;7.80;3.73;;;9.20;97.30;;;;;;5029449;28;20453;-84
2022/02/09 20:53:06;;;;;;;6.33;3.73;;;9.20;97.30;;;;;;5027203;28;20802;-84
2022/02/09 20:55:32;;;;;;;8.10;3.10;;;9.20;97.30;;;;;;5030186;28;20503;-84
2022/02/09 20:57:58;;;;;;;6.23;3.83;;;9.20;97.30;;;;;;5032419;28;20435;-83
2022/02/09 21:00:37;;;;;;;6.60;3.67;;;9.20;97.30;;;;;;5030678;28;20428;-84
2022/02/09 21:03:22;;;;;;;5.30;3.07;;;9.20;97.30;;;;;;5025084;28;20200;-84
2022/02/09 21:06:03;;;;;;;5.50;3.90;;;9.20;97.30;;;;;;5019879;28;20412;-84
2022/02/09 21:14:03;;;;;;;7.00;3.53;;;9.20;97.30;;;;;;5031422;28;20434;-83
2022/02/09 21:19:33;;;;;;;5.27;3.23;;;9.20;97.30;;;;;;5020599;28;20407;-84
2022/02/09 21:25:08;;;;;;;5.93;3.30;;;9.20;97.30;;;;;;5027365;28;20407;-84
2022/02/09 21:54:29;;;;;;;4.60;2.97;;;9.20;97.30;;;;;;5026405;28;20504;-82
2022/02/09 21:57:02;;;;;;;4.20;3.03;;;9.20;97.30;;;;;;5017746;28;20423;-82
2022/02/09 21:59:56;;;;;;;5.80;3.13;;;9.20;97.30;;;;;;5023840;28;21023;-82
2022/02/09 22:16:25;;;;;;;4.10;2.90;;;9.20;97.30;;;;;;5025692;28;20423;-82
2022/02/09 22:48:38;;;;;;;5.03;3.43;;;9.10;97.30;;;;;;5019885;28;20856;-82
2022/02/09 22:56:32;;;;;;;5.80;3.10;;;9.10;97.30;;;;;;5022491;28;20414;-81
2022/02/09 22:59:00;;;;;;;6.00;4.30;;;9.10;97.30;;;;;;5024247;28;20483;-82
2022/02/09 23:01:47;;;;;;;5.50;3.33;;;9.10;97.30;;;;;;5020008;28;20177;-82
2022/02/09 23:12:05;;;;;;;6.30;3.70;;;9.10;97.30;;;;;;5021989;28;20438;-82
2022/02/09 23:18:23;;;;;;;7.27;3.87;;;9.10;97.30;;;;;;5029908;28;20430;-81
2022/02/09 23:23:36;;;;;;;6.43;3.33;;;9.10;97.30;;;;;;5032435;28;20452;-81
